createdAt,value
2018-05-15T00:09:32.000Z,35.896
2018-05-15T00:19:32.000Z,35.882
2018-05-15T00:29:32.000Z,35.888
2018-05-15T00:39:32.000Z,35.953
2018-05-15T00:49:32.000Z,35.782
2018-05-15T00:59:32.000Z,35.876
2018-05-15T01:09:32.000Z,35.574
2018-05-15T01:19:32.000Z,35.349
2018-05-15T01:29:32.000Z,35.278
2018-05-15T01:39:32.000Z,34.973
2018-05-15T01:49:32.000Z,35.038
2018-05-15T01:59:33.000Z,34.968
2018-05-15T02:09:33.000Z,34.942
2018-05-15T02:19:33.000Z,35.005
2018-05-15T02:29:33.000Z,35.023
2018-05-15T02:39:33.000Z,34.72
2018-05-15T02:49:33.000Z,34.75
2018-05-15T02:59:33.000Z,34.616
2018-05-15T03:09:33.000Z,34.899
2018-05-15T03:19:33.000Z,34.941
2018-05-15T03:29:33.000Z,35.148
2018-05-15T03:39:33.000Z,35.267
2018-05-15T03:49:33.000Z,35.232
2018-05-15T03:59:33.000Z,35.318
2018-05-15T04:09:33.000Z,35.47
2018-05-15T04:19:33.000Z,35.347
2018-05-15T04:29:33.000Z,35.345
2018-05-15T04:39:33.000Z,35.357
2018-05-15T04:49:33.000Z,35.192
2018-05-15T04:59:33.000Z,35.204
2018-05-15T05:09:33.000Z,35.259
2018-05-15T05:19:33.000Z,35.064
2018-05-15T05:29:33.000Z,34.974
2018-05-15T05:39:33.000Z,35.03
2018-05-15T05:49:33.000Z,34.892
2018-05-15T05:59:33.000Z,35.312
2018-05-15T06:09:33.000Z,35.587
2018-05-15T06:19:33.000Z,35.509
2018-05-15T06:29:33.000Z,35.467
2018-05-15T06:39:33.000Z,35.645
2018-05-15T06:49:33.000Z,35.547
2018-05-15T06:59:33.000Z,35.141
2018-05-15T07:09:33.000Z,34.873
2018-05-15T07:19:33.000Z,34.868
2018-05-15T07:29:33.000Z,34.665
2018-05-15T07:39:33.000Z,34.852
2018-05-15T07:49:33.000Z,34.066
2018-05-15T07:59:33.000Z,33.689
2018-05-15T08:09:33.000Z,33.291
2018-05-15T08:19:33.000Z,33.012
2018-05-15T08:29:33.000Z,33.337
2018-05-15T08:39:33.000Z,33.499
2018-05-15T08:49:33.000Z,33.251
2018-05-15T08:59:33.000Z,32.954
2018-05-15T09:09:33.000Z,32.434
2018-05-15T09:19:33.000Z,31.051
2018-05-15T09:29:33.000Z,30.711
2018-05-15T09:39:33.000Z,31.018
2018-05-15T09:49:33.000Z,30.668
2018-05-15T09:59:34.000Z,30.109
2018-05-15T10:09:34.000Z,30.182
2018-05-15T10:19:34.000Z,29.339
2018-05-15T10:29:34.000Z,29.383
2018-05-15T10:39:34.000Z,29.234
2018-05-15T10:49:34.000Z,27.872
2018-05-15T10:59:34.000Z,27.916
2018-05-15T11:09:34.000Z,27.866
2018-05-15T11:19:34.000Z,28.342
2018-05-15T11:29:34.000Z,27.952
2018-05-15T11:39:34.000Z,28.012
2018-05-15T11:49:34.000Z,26.871
2018-05-15T11:59:34.000Z,26.662
2018-05-15T12:09:34.000Z,25.692
2018-05-15T12:19:34.000Z,26.701
2018-05-15T12:29:34.000Z,26.588
2018-05-15T12:39:34.000Z,25.973
2018-05-15T12:49:34.000Z,24.782
2018-05-15T12:59:34.000Z,24.772
2018-05-15T13:09:34.000Z,24.494
2018-05-15T13:19:34.000Z,25.077
2018-05-15T13:29:34.000Z,24.55
2018-05-15T13:39:34.000Z,25.098
2018-05-15T13:49:34.000Z,25.442
2018-05-15T13:59:35.000Z,25.798
2018-05-15T14:09:34.000Z,25.481
2018-05-15T14:19:34.000Z,24.847
2018-05-15T14:29:34.000Z,24.755
2018-05-15T14:39:34.000Z,25.454
2018-05-15T14:49:34.000Z,23.893
2018-05-15T14:59:34.000Z,24.241
2018-05-15T15:09:34.000Z,23.835
2018-05-15T15:19:34.000Z,24.53
2018-05-15T15:29:34.000Z,24.83
2018-05-15T15:39:34.000Z,25.098
2018-05-15T15:49:34.000Z,25.083
2018-05-15T15:59:34.000Z,25.43
2018-05-15T16:09:34.000Z,25.754
2018-05-15T16:19:34.000Z,25.715
2018-05-15T16:29:34.000Z,25.636
2018-05-15T16:39:34.000Z,26.099
2018-05-15T16:49:34.000Z,26.219
2018-05-15T16:59:34.000Z,26.632
2018-05-15T17:09:34.000Z,26.565
2018-05-15T17:19:34.000Z,26.507
2018-05-15T17:29:34.000Z,26.951
2018-05-15T17:39:34.000Z,26.495
2018-05-15T17:49:34.000Z,26.929
2018-05-15T17:59:34.000Z,27.13
2018-05-15T18:09:34.000Z,27.32
2018-05-15T18:19:35.000Z,27.627
2018-05-15T18:29:35.000Z,27.627
2018-05-15T18:39:35.000Z,27.924
2018-05-15T18:49:35.000Z,28.156
2018-05-15T18:59:35.000Z,28.431
2018-05-15T19:09:35.000Z,28.608
2018-05-15T19:19:35.000Z,28.838
2018-05-15T19:29:36.000Z,28.893
2018-05-15T19:39:35.000Z,31.225
2018-05-15T19:49:35.000Z,31.233
2018-05-15T19:59:35.000Z,30.71
2018-05-15T20:09:35.000Z,30.641
2018-05-15T20:19:35.000Z,30.707
2018-05-15T20:29:35.000Z,31.118
2018-05-15T20:39:35.000Z,31.824
2018-05-15T20:49:35.000Z,32.659
2018-05-15T20:59:35.000Z,32.626
2018-05-15T21:09:35.000Z,32.778
2018-05-15T21:19:35.000Z,32.289
2018-05-15T21:29:35.000Z,32.32
2018-05-15T21:39:35.000Z,32.294
2018-05-15T21:49:35.000Z,32.236
2018-05-15T21:59:35.000Z,32.146
2018-05-15T22:09:35.000Z,32.254
2018-05-15T22:19:35.000Z,32.226
2018-05-15T22:29:35.000Z,31.993
2018-05-15T22:39:35.000Z,32.286
2018-05-15T22:49:35.000Z,31.976
2018-05-15T22:59:35.000Z,32.052
2018-05-15T23:09:35.000Z,32.291
2018-05-15T23:19:35.000Z,32.377
2018-05-15T23:29:35.000Z,32.31
2018-05-15T23:39:35.000Z,32.179
2018-05-15T23:49:35.000Z,32.31
2018-05-15T23:59:35.000Z,32.408
